createdAt,value
2022-10-16T00:00:56.639Z,97399.69
2022-10-16T00:04:02.102Z,97396.63
2022-10-16T00:07:06.307Z,97398.03
2022-10-16T00:10:09.313Z,97411.13
2022-10-16T00:13:11.960Z,97416.22
2022-10-16T00:16:15.008Z,97426.00
2022-10-16T00:19:19.083Z,97431.13
2022-10-16T00:22:21.745Z,97427.03
2022-10-16T00:25:24.374Z,97440.31
2022-10-16T00:28:27.232Z,97459.06
2022-10-16T00:31:30.645Z,97465.81
2022-10-16T00:34:34.651Z,97470.69
2022-10-16T00:37:37.365Z,97474.56
2022-10-16T00:40:40.105Z,97473.31
2022-10-16T00:43:44.454Z,97465.59
2022-10-16T00:46:47.131Z,97469.28
2022-10-16T00:49:52.392Z,97476.59
2022-10-16T00:52:56.027Z,97479.25
2022-10-16T00:55:59.745Z,97474.97
2022-10-16T00:59:03.638Z,97486.81
2022-10-16T01:02:07.189Z,97487.63
2022-10-16T01:05:11.516Z,97487.63
2022-10-16T01:08:16.836Z,97495.16
2022-10-16T01:11:21.614Z,97494.97
2022-10-16T01:14:28.750Z,97488.44
2022-10-16T01:17:36.744Z,97480.28
2022-10-16T01:20:44.226Z,97478.25
2022-10-16T01:23:52.052Z,97462.94
2022-10-16T01:27:07.314Z,97465.00
2022-10-16T01:30:14.833Z,97461.09
2022-10-16T01:33:21.291Z,97452.13
2022-10-16T01:36:27.619Z,97444.38
2022-10-16T01:39:32.884Z,97449.88
2022-10-16T01:42:39.650Z,97444.59
2022-10-16T01:45:43.570Z,97441.94
2022-10-16T01:48:46.858Z,97430.50
2022-10-16T01:51:51.509Z,97435.03
2022-10-16T01:54:56.148Z,97442.34
2022-10-16T01:58:01.885Z,97429.72
2022-10-16T02:01:06.254Z,97431.75
2022-10-16T02:04:14.849Z,97440.97
2022-10-16T02:07:17.754Z,97449.09
2022-10-16T02:10:20.697Z,97446.84
2022-10-16T02:13:27.970Z,97447.69
2022-10-16T02:16:35.561Z,97445.00
2022-10-16T02:22:42.900Z,97439.06
2022-10-16T02:25:47.438Z,97438.69
2022-10-16T02:28:55.143Z,97431.91
2022-10-16T02:32:00.430Z,97428.47
2022-10-16T02:35:03.810Z,97436.59
2022-10-16T02:38:07.467Z,97438.63
2022-10-16T02:41:10.212Z,97429.25
2022-10-16T02:44:14.435Z,97429.50
2022-10-16T02:47:17.153Z,97431.31
2022-10-16T02:50:19.869Z,97432.34
2022-10-16T02:53:22.554Z,97430.91
2022-10-16T02:56:25.282Z,97438.25
2022-10-16T02:59:29.277Z,97436.22
2022-10-16T03:02:31.937Z,97437.06
2022-10-16T03:05:34.610Z,97438.06
2022-10-16T03:08:37.275Z,97436.25
2022-10-16T03:11:39.961Z,97435.63
2022-10-16T03:14:43.998Z,97451.53
2022-10-16T03:17:46.652Z,97450.94
2022-10-16T03:20:49.294Z,97448.91
2022-10-16T03:23:51.919Z,97434.78
2022-10-16T03:26:54.605Z,97416.84
2022-10-16T03:29:58.629Z,97409.09
2022-10-16T03:33:01.268Z,97408.47
2022-10-16T03:36:04.054Z,97406.41
2022-10-16T03:39:06.747Z,97410.53
2022-10-16T03:42:09.440Z,97423.16
2022-10-16T03:45:13.761Z,97433.16
2022-10-16T03:48:16.452Z,97441.34
2022-10-16T03:51:19.113Z,97448.91
2022-10-16T03:54:23.142Z,97475.03
2022-10-16T03:57:26.045Z,97516.63
2022-10-16T04:00:30.213Z,97549.88
2022-10-16T04:03:33.135Z,97562.72
2022-10-16T04:06:35.829Z,97578.63
2022-10-16T04:09:38.491Z,97591.28
2022-10-16T04:12:41.150Z,97610.03
2022-10-16T04:15:46.503Z,97622.69
2022-10-16T04:18:49.156Z,97634.91
2022-10-16T04:21:51.862Z,97654.50
2022-10-16T04:24:54.546Z,97661.19
2022-10-16T04:27:57.414Z,97657.53
2022-10-16T04:31:01.534Z,97667.75
2022-10-16T04:34:04.222Z,97681.78
2022-10-16T04:37:07.133Z,97685.03
2022-10-16T04:40:09.968Z,97706.44
2022-10-16T04:43:12.672Z,97725.81
2022-10-16T04:46:16.709Z,97738.06
2022-10-16T04:49:19.498Z,97749.91
2022-10-16T04:52:22.639Z,97751.09
2022-10-16T04:55:25.418Z,97748.28
2022-10-16T04:58:28.092Z,97747.63
2022-10-16T05:01:32.186Z,97745.38
2022-10-16T05:04:34.844Z,97755.56
2022-10-16T05:07:37.518Z,97753.31
2022-10-16T05:10:40.203Z,97770.06
2022-10-16T05:13:42.862Z,97770.44
2022-10-16T05:16:48.996Z,97764.75
2022-10-16T05:19:51.686Z,97768.00
2022-10-16T05:22:54.334Z,97773.31
2022-10-16T05:25:59.319Z,97780.00
2022-10-16T05:29:02.275Z,97780.84
2022-10-16T05:32:06.438Z,97775.72
2022-10-16T05:35:12.555Z,97775.38
2022-10-16T05:38:15.857Z,97779.66
2022-10-16T05:41:22.310Z,97777.63
2022-10-16T05:44:25.113Z,97779.22
2022-10-16T05:47:29.581Z,97784.56
2022-10-16T05:50:32.411Z,97778.81
2022-10-16T05:53:35.952Z,97787.97
2022-10-16T05:56:38.695Z,97792.28
2022-10-16T05:59:41.371Z,97798.78
2022-10-16T06:02:45.365Z,97811.81
2022-10-16T06:05:48.035Z,97817.38
2022-10-16T06:08:51.243Z,97821.25
2022-10-16T06:11:53.852Z,97833.31
2022-10-16T06:14:56.599Z,97839.47
2022-10-16T06:18:00.592Z,97834.41
2022-10-16T06:21:08.837Z,97835.22
2022-10-16T06:24:11.755Z,97843.88
2022-10-16T06:27:14.389Z,97841.06
2022-10-16T06:30:17.152Z,97846.09
2022-10-16T06:33:21.238Z,97860.81
2022-10-16T06:36:24.389Z,97867.59
2022-10-16T06:39:27.034Z,97883.94
2022-10-16T06:42:29.783Z,97892.72
2022-10-16T06:45:33.063Z,97900.72
2022-10-16T06:48:37.369Z,97913.97
2022-10-16T06:51:43.290Z,97920.94
2022-10-16T06:54:46.429Z,97918.53
2022-10-16T06:57:49.641Z,97921.78
2022-10-16T07:00:57.174Z,97928.75
2022-10-16T07:04:02.036Z,97926.38
2022-10-16T07:07:07.006Z,97942.75
2022-10-16T07:10:12.070Z,97941.13
2022-10-16T07:13:15.299Z,97962.00
2022-10-16T07:16:19.184Z,97958.78
2022-10-16T07:19:23.503Z,97959.84
2022-10-16T07:22:26.441Z,97969.72
2022-10-16T07:25:29.305Z,97965.44
2022-10-16T07:28:32.609Z,97960.13
2022-10-16T07:31:35.342Z,97948.72
2022-10-16T07:34:39.362Z,97934.44
2022-10-16T07:37:46.160Z,97944.69
2022-10-16T07:40:48.877Z,97927.13
2022-10-16T07:43:52.443Z,97911.41
2022-10-16T07:46:55.109Z,97889.56
2022-10-16T07:49:59.109Z,97872.81
2022-10-16T07:53:01.794Z,97860.34
2022-10-16T07:56:05.521Z,97832.72
2022-10-16T07:59:08.182Z,97812.47
2022-10-16T08:02:10.835Z,97790.22
2022-10-16T08:05:14.932Z,97774.25
2022-10-16T08:08:18.820Z,97760.97
2022-10-16T08:11:21.551Z,97742.31
2022-10-16T08:14:24.258Z,97746.19
2022-10-16T08:17:27.207Z,97732.09
2022-10-16T08:20:32.003Z,97710.19
2022-10-16T08:23:35.026Z,97692.78
2022-10-16T08:26:37.729Z,97686.25
2022-10-16T08:29:40.496Z,97677.41
2022-10-16T08:32:43.352Z,97676.41
2022-10-16T08:35:54.493Z,97658.72
2022-10-16T08:38:57.185Z,97631.69
2022-10-16T08:42:05.525Z,97583.28
2022-10-16T08:45:17.711Z,97547.22
2022-10-16T08:48:24.157Z,97540.28
2022-10-16T08:51:29.758Z,97517.28
2022-10-16T08:54:37.948Z,97507.03
2022-10-16T08:57:40.761Z,97500.41
2022-10-16T09:00:44.683Z,97486.06
2022-10-16T09:03:54.328Z,97480.88
2022-10-16T09:06:59.901Z,97489.75
2022-10-16T09:10:11.085Z,97502.81
2022-10-16T09:13:19.228Z,97495.72
2022-10-16T09:16:24.182Z,97496.69
2022-10-16T09:19:32.041Z,97498.16
2022-10-16T09:22:36.204Z,97513.25
2022-10-16T09:25:40.888Z,97516.38
2022-10-16T09:28:44.042Z,97517.41
2022-10-16T09:31:46.839Z,97526.19
2022-10-16T09:34:50.476Z,97544.16
2022-10-16T09:37:55.620Z,97547.00
2022-10-16T09:41:03.122Z,97535.91
2022-10-16T09:44:08.643Z,97546.94
2022-10-16T09:47:15.437Z,97545.31
2022-10-16T09:50:23.741Z,97549.72
2022-10-16T09:53:28.683Z,97537.88
2022-10-16T09:56:33.508Z,97537.44
2022-10-16T09:59:36.303Z,97541.72
2022-10-16T10:02:40.255Z,97535.34
2022-10-16T10:05:42.957Z,97537.72
2022-10-16T10:09:05.455Z,97534.03
2022-10-16T10:12:20.751Z,97540.97
2022-10-16T10:15:27.772Z,97526.22
2022-10-16T10:18:32.909Z,97515.94
2022-10-16T10:21:36.258Z,97523.69
2022-10-16T10:24:40.326Z,97529.38
2022-10-16T10:27:49.415Z,97535.53
2022-10-16T10:30:57.697Z,97526.06
2022-10-16T10:34:03.270Z,97531.53
2022-10-16T10:37:11.291Z,97528.19
2022-10-16T10:40:23.950Z,97539.81
2022-10-16T10:43:34.302Z,97521.59
2022-10-16T10:46:43.385Z,97514.09
2022-10-16T10:49:54.526Z,97498.47
2022-10-16T10:53:02.094Z,97489.28
2022-10-16T10:56:11.816Z,97478.94
2022-10-16T10:59:26.617Z,97471.81
2022-10-16T11:02:35.200Z,97456.66
2022-10-16T11:05:43.387Z,97443.66
2022-10-16T11:08:50.512Z,97439.25
2022-10-16T11:11:58.554Z,97430.91
2022-10-16T11:15:03.750Z,97438.47
2022-10-16T11:18:08.444Z,97428.72
2022-10-16T11:21:13.800Z,97432.41
2022-10-16T11:24:18.363Z,97430.09
2022-10-16T11:27:25.611Z,97421.03
2022-10-16T11:30:29.514Z,97427.88
2022-10-16T11:33:36.114Z,97429.97
2022-10-16T11:36:41.023Z,97424.88
2022-10-16T11:39:45.202Z,97429.88
2022-10-16T11:42:53.872Z,97437.06
2022-10-16T11:45:57.350Z,97443.19
2022-10-16T11:49:05.549Z,97437.97
2022-10-16T11:52:10.271Z,97445.94
2022-10-16T11:55:17.601Z,97446.75
2022-10-16T11:58:26.193Z,97451.53
2022-10-16T12:01:32.477Z,97451.19
2022-10-16T12:04:46.162Z,97446.16
2022-10-16T12:07:53.017Z,97454.09
2022-10-16T12:10:56.344Z,97454.69
2022-10-16T12:14:08.281Z,97454.72
2022-10-16T12:17:26.050Z,97464.16
2022-10-16T12:20:32.206Z,97463.16
2022-10-16T12:23:35.610Z,97461.66
2022-10-16T12:26:40.284Z,97454.59
2022-10-16T12:29:46.367Z,97456.19
2022-10-16T12:32:55.591Z,97460.28
2022-10-16T12:36:00.235Z,97459.13
2022-10-16T12:39:03.460Z,97454.28
2022-10-16T12:42:07.472Z,97465.16
2022-10-16T12:45:28.706Z,97456.94
2022-10-16T12:48:42.385Z,97461.09
2022-10-16T12:51:54.667Z,97454.13
2022-10-16T12:55:01.894Z,97464.22
2022-10-16T12:58:11.215Z,97464.13
2022-10-16T13:01:21.108Z,97462.16
2022-10-16T13:04:29.535Z,97457.50
2022-10-16T13:07:41.319Z,97455.63
2022-10-16T13:10:47.424Z,97457.69
2022-10-16T13:14:01.326Z,97459.22
2022-10-16T13:17:10.213Z,97471.31
2022-10-16T13:20:19.503Z,97475.25
2022-10-16T13:23:27.999Z,97490.22
2022-10-16T13:26:38.853Z,97496.13
2022-10-16T13:29:42.636Z,97500.66
2022-10-16T13:32:48.386Z,97494.50
2022-10-16T13:35:52.589Z,97493.13
2022-10-16T13:39:05.635Z,97489.06
2022-10-16T13:45:19.968Z,97504.72
2022-10-16T13:48:24.325Z,97491.16
2022-10-16T13:51:27.327Z,97500.16
2022-10-16T13:54:30.771Z,97497.28
2022-10-16T13:57:33.646Z,97498.34
2022-10-16T14:03:41.131Z,97501.72
2022-10-16T14:06:45.266Z,97495.44
2022-10-16T14:09:50.314Z,97511.88
2022-10-16T14:12:57.383Z,97510.97
2022-10-16T14:16:02.095Z,97517.16
2022-10-16T14:19:07.924Z,97523.06
2022-10-16T14:22:23.039Z,97522.63
2022-10-16T14:25:28.618Z,97520.88
2022-10-16T14:28:31.829Z,97516.69
2022-10-16T14:31:37.317Z,97522.84
2022-10-16T14:34:42.137Z,97521.25
2022-10-16T14:37:45.964Z,97527.16
2022-10-16T14:40:49.696Z,97524.72
2022-10-16T14:43:53.931Z,97524.34
2022-10-16T14:46:56.793Z,97524.34
2022-10-16T14:50:00.915Z,97525.88
2022-10-16T14:53:03.938Z,97524.94
2022-10-16T14:56:08.314Z,97527.38
2022-10-16T14:59:15.764Z,97521.31
2022-10-16T15:02:21.082Z,97522.63
2022-10-16T15:05:27.019Z,97527.81
2022-10-16T15:08:29.693Z,97524.00
2022-10-16T15:11:34.045Z,97517.03
2022-10-16T15:14:36.739Z,97530.59
2022-10-16T15:17:39.412Z,97525.38
2022-10-16T15:20:43.623Z,97532.31
2022-10-16T15:23:46.287Z,97529.88
2022-10-16T15:26:49.892Z,97532.72
2022-10-16T15:29:52.699Z,97538.06
2022-10-16T15:32:55.414Z,97544.31
2022-10-16T15:35:59.465Z,97544.63
2022-10-16T15:39:02.451Z,97548.66
2022-10-16T15:42:06.856Z,97555.72
2022-10-16T15:45:10.685Z,97567.31
2022-10-16T15:48:14.631Z,97569.78
2022-10-16T15:51:19.351Z,97574.81
2022-10-16T15:54:23.989Z,97584.34
2022-10-16T15:57:26.969Z,97585.84
2022-10-16T16:00:29.737Z,97590.91
2022-10-16T16:03:33.187Z,97595.84
2022-10-16T16:06:38.584Z,97603.63
2022-10-16T16:09:41.286Z,97610.97
2022-10-16T16:12:44.254Z,97612.22
2022-10-16T16:15:46.965Z,97617.09
2022-10-16T16:18:50.398Z,97622.06
2022-10-16T16:21:54.758Z,97629.69
2022-10-16T16:24:57.800Z,97624.72
2022-10-16T16:28:00.530Z,97633.88
2022-10-16T16:31:03.299Z,97644.88
2022-10-16T16:34:06.005Z,97655.97
2022-10-16T16:37:10.193Z,97668.44
2022-10-16T16:40:13.011Z,97673.78
2022-10-16T16:43:15.726Z,97690.88
2022-10-16T16:46:18.392Z,97692.75
2022-10-16T16:49:21.191Z,97705.38
2022-10-16T16:52:25.399Z,97720.00
2022-10-16T16:55:28.143Z,97730.44
2022-10-16T16:58:30.860Z,97739.44
2022-10-16T17:01:33.757Z,97754.78
2022-10-16T17:04:36.742Z,97753.34
2022-10-16T17:07:41.821Z,97767.69
2022-10-16T17:10:45.114Z,97767.31
2022-10-16T17:13:50.022Z,97780.41
2022-10-16T17:16:55.320Z,97794.75
2022-10-16T17:19:58.073Z,97819.25
2022-10-16T17:23:02.182Z,97835.19
2022-10-16T17:26:05.480Z,97836.63
2022-10-16T17:29:08.659Z,97836.41
2022-10-16T17:32:11.565Z,97841.72
2022-10-16T17:35:14.193Z,97853.59
2022-10-16T17:38:18.251Z,97869.09
2022-10-16T17:41:22.137Z,97903.03
2022-10-16T17:44:24.844Z,97915.91
2022-10-16T17:47:28.549Z,97917.34
2022-10-16T17:50:31.243Z,97926.34
2022-10-16T17:53:35.506Z,97934.91
2022-10-16T17:56:38.387Z,97939.44
2022-10-16T17:59:41.037Z,97960.25
2022-10-16T18:02:44.057Z,97962.69
2022-10-16T18:05:46.882Z,97985.22
2022-10-16T18:08:51.261Z,97984.59
2022-10-16T18:11:59.951Z,97991.31
2022-10-16T18:15:02.631Z,97990.50
2022-10-16T18:18:05.990Z,98005.41
2022-10-16T18:21:11.021Z,98057.41
2022-10-16T18:24:15.078Z,98072.44
2022-10-16T18:27:17.849Z,98080.22
2022-10-16T18:30:20.572Z,98100.81
2022-10-16T18:33:23.330Z,98119.63
2022-10-16T18:36:26.731Z,98120.16
2022-10-16T18:39:31.055Z,98128.66
2022-10-16T18:42:33.727Z,98128.91
2022-10-16T18:45:36.652Z,98136.69
2022-10-16T18:48:39.438Z,98126.53
2022-10-16T18:51:44.051Z,98130.63
2022-10-16T18:54:48.261Z,98139.00
2022-10-16T18:57:50.953Z,98173.16
2022-10-16T19:00:53.797Z,98179.56
2022-10-16T19:03:58.042Z,98180.13
2022-10-16T19:07:00.954Z,98179.97
2022-10-16T19:10:05.333Z,98181.44
2022-10-16T19:13:10.334Z,98177.97
2022-10-16T19:16:20.441Z,98185.56
2022-10-16T19:19:23.953Z,98198.94
2022-10-16T19:22:40.922Z,98222.31
2022-10-16T19:25:45.001Z,98220.28
2022-10-16T19:28:48.440Z,98211.94
2022-10-16T19:31:51.297Z,98212.56
2022-10-16T19:34:54.117Z,98212.19
2022-10-16T19:37:56.888Z,98206.91
2022-10-16T19:41:07.388Z,98194.84
2022-10-16T19:44:10.982Z,98189.13
2022-10-16T19:47:13.671Z,98176.44
2022-10-16T19:50:17.180Z,98174.41
2022-10-16T19:53:20.122Z,98161.06
2022-10-16T19:56:25.460Z,98158.94
2022-10-16T19:59:28.259Z,98159.28
2022-10-16T20:02:31.046Z,98162.31
2022-10-16T20:05:33.858Z,98161.53
2022-10-16T20:08:37.431Z,98158.41
2022-10-16T20:11:41.676Z,98168.91
2022-10-16T20:14:44.614Z,98181.97
2022-10-16T20:17:47.260Z,98195.34
2022-10-16T20:20:52.645Z,98203.75
2022-10-16T20:23:55.490Z,98204.38
2022-10-16T20:27:00.963Z,98210.66
2022-10-16T20:30:03.762Z,98208.19
2022-10-16T20:33:08.363Z,98210.56
2022-10-16T20:36:12.146Z,98229.16
2022-10-16T20:39:14.919Z,98228.88
2022-10-16T20:42:18.985Z,98229.72
2022-10-16T20:45:21.744Z,98229.22
2022-10-16T20:48:24.493Z,98238.75
2022-10-16T20:51:28.472Z,98240.63
2022-10-16T20:54:31.135Z,98246.53
2022-10-16T20:57:35.221Z,98264.78
2022-10-16T21:00:38.007Z,98273.75
2022-10-16T21:03:40.812Z,98273.09
2022-10-16T21:06:45.002Z,98275.66
2022-10-16T21:09:47.670Z,98277.03
2022-10-16T21:12:55.574Z,98287.75
2022-10-16T21:15:58.566Z,98287.38
2022-10-16T21:19:01.282Z,98300.91
2022-10-16T21:22:04.039Z,98318.13
2022-10-16T21:25:07.285Z,98313.81
2022-10-16T21:28:11.309Z,98321.13
2022-10-16T21:31:14.886Z,98328.75
2022-10-16T21:34:17.605Z,98334.41
2022-10-16T21:37:20.332Z,98343.00
2022-10-16T21:40:23.053Z,98334.22
2022-10-16T21:43:27.044Z,98333.88
2022-10-16T21:46:30.508Z,98325.78
2022-10-16T21:49:33.158Z,98327.59
2022-10-16T21:52:35.903Z,98326.25
2022-10-16T21:55:38.560Z,98330.53
2022-10-16T21:58:42.535Z,98338.31
2022-10-16T22:01:45.316Z,98356.69
2022-10-16T22:04:48.051Z,98368.31
2022-10-16T22:07:50.683Z,98372.63
2022-10-16T22:10:53.353Z,98384.88
2022-10-16T22:13:57.863Z,98389.53
2022-10-16T22:17:00.540Z,98402.44
2022-10-16T22:20:03.370Z,98412.03
2022-10-16T22:23:06.018Z,98416.31
2022-10-16T22:26:09.817Z,98412.50
2022-10-16T22:29:14.929Z,98413.78
2022-10-16T22:32:17.545Z,98423.03
2022-10-16T22:35:20.213Z,98434.63
2022-10-16T22:38:22.858Z,98439.94
2022-10-16T22:42:10.324Z,98442.84
2022-10-16T22:45:14.264Z,98440.22
2022-10-16T22:48:16.861Z,98434.56
2022-10-16T22:51:19.759Z,98446.06
2022-10-16T22:54:22.387Z,98439.94
2022-10-16T22:57:25.016Z,98439.19
2022-10-16T23:00:28.973Z,98431.78
2022-10-16T23:03:31.567Z,98423.28
2022-10-16T23:06:34.740Z,98408.19
2022-10-16T23:09:37.497Z,98397.13
2022-10-16T23:12:40.172Z,98397.56
2022-10-16T23:15:44.912Z,98383.28
2022-10-16T23:18:48.040Z,98379.63
2022-10-16T23:21:50.708Z,98363.63
2022-10-16T23:24:53.410Z,98362.16
2022-10-16T23:27:56.096Z,98343.06
2022-10-16T23:31:00.114Z,98353.13
2022-10-16T23:34:03.020Z,98359.97
2022-10-16T23:37:06.622Z,98368.69
2022-10-16T23:40:09.596Z,98366.69
2022-10-16T23:43:12.220Z,98374.25
2022-10-16T23:46:16.650Z,98368.69
2022-10-16T23:49:19.337Z,98348.56
2022-10-16T23:52:21.942Z,98327.53
2022-10-16T23:55:24.615Z,98311.56
2022-10-16T23:58:27.324Z,98294.47
